sensor_id;sensor_type;location;lat;lon;timestamp;temperature;humidity
47600;DHT22;33323;52.124;6.018;2023-06-26T00:00:14;22.00;99.90
47600;DHT22;33323;52.124;6.018;2023-06-26T00:02:42;21.90;99.90
47600;DHT22;33323;52.124;6.018;2023-06-26T00:05:09;21.90;99.90
47600;DHT22;33323;52.124;6.018;2023-06-26T00:07:36;21.80;99.90
47600;DHT22;33323;52.124;6.018;2023-06-26T00:10:05;21.70;99.90
47600;DHT22;33323;52.124;6.018;2023-06-26T00:12:33;21.50;99.90
47600;DHT22;33323;52.124;6.018;2023-06-26T00:15:00;21.50;99.90
47600;DHT22;33323;52.124;6.018;2023-06-26T00:17:28;21.40;99.90
47600;DHT22;33323;52.124;6.018;2023-06-26T00:19:55;21.30;99.90
47600;DHT22;33323;52.124;6.018;2023-06-26T00:22:23;21.30;99.90
47600;DHT22;33323;52.124;6.018;2023-06-26T00:24:50;21.40;99.90
47600;DHT22;33323;52.124;6.018;2023-06-26T00:27:17;21.30;99.90
47600;DHT22;33323;52.124;6.018;2023-06-26T00:29:44;21.30;99.90
47600;DHT22;33323;52.124;6.018;2023-06-26T00:32:11;21.30;99.90
47600;DHT22;33323;52.124;6.018;2023-06-26T00:34:38;21.30;99.90
47600;DHT22;33323;52.124;6.018;2023-06-26T00:37:07;21.30;99.90
47600;DHT22;33323;52.124;6.018;2023-06-26T00:39:34;21.30;99.90
47600;DHT22;33323;52.124;6.018;2023-06-26T00:42:02;21.20;99.90
47600;DHT22;33323;52.124;6.018;2023-06-26T00:44:29;21.20;99.90
47600;DHT22;33323;52.124;6.018;2023-06-26T00:46:56;21.20;99.90
47600;DHT22;33323;52.124;6.018;2023-06-26T00:49:24;21.20;99.90
47600;DHT22;33323;52.124;6.018;2023-06-26T00:51:51;21.10;99.90
47600;DHT22;33323;52.124;6.018;2023-06-26T00:54:19;21.00;99.90
47600;DHT22;33323;52.124;6.018;2023-06-26T00:56:49;21.10;99.90
47600;DHT22;33323;52.124;6.018;2023-06-26T00:59:16;21.00;99.90
47600;DHT22;33323;52.124;6.018;2023-06-26T01:01:43;21.00;99.90
47600;DHT22;33323;52.124;6.018;2023-06-26T01:04:10;20.90;99.90
47600;DHT22;33323;52.124;6.018;2023-06-26T01:06:48;20.90;99.90
47600;DHT22;33323;52.124;6.018;2023-06-26T01:09:18;20.90;99.90
47600;DHT22;33323;52.124;6.018;2023-06-26T01:11:46;21.10;99.90
47600;DHT22;33323;52.124;6.018;2023-06-26T01:14:14;21.10;99.90
47600;DHT22;33323;52.124;6.018;2023-06-26T01:16:43;21.10;99.90
47600;DHT22;33323;52.124;6.018;2023-06-26T01:19:26;21.00;99.90
47600;DHT22;33323;52.124;6.018;2023-06-26T01:22:10;20.90;99.90
47600;DHT22;33323;52.124;6.018;2023-06-26T01:24:47;21.20;99.90
47600;DHT22;33323;52.124;6.018;2023-06-26T01:27:38;21.40;99.90
47600;DHT22;33323;52.124;6.018;2023-06-26T01:30:06;21.50;99.90
47600;DHT22;33323;52.124;6.018;2023-06-26T01:32:35;21.60;99.90
47600;DHT22;33323;52.124;6.018;2023-06-26T01:35:02;21.70;99.90
47600;DHT22;33323;52.124;6.018;2023-06-26T01:37:30;21.60;99.90
47600;DHT22;33323;52.124;6.018;2023-06-26T01:39:57;21.70;99.90
47600;DHT22;33323;52.124;6.018;2023-06-26T01:42:24;21.80;99.90
47600;DHT22;33323;52.124;6.018;2023-06-26T01:44:52;21.70;99.90
47600;DHT22;33323;52.124;6.018;2023-06-26T01:47:25;21.70;99.90
47600;DHT22;33323;52.124;6.018;2023-06-26T01:50:09;21.70;99.90
47600;DHT22;33323;52.124;6.018;2023-06-26T01:53:11;21.60;99.90
47600;DHT22;33323;52.124;6.018;2023-06-26T01:55:54;21.70;99.90
47600;DHT22;33323;52.124;6.018;2023-06-26T01:58:24;21.70;99.90
47600;DHT22;33323;52.124;6.018;2023-06-26T02:00:52;21.70;99.90
47600;DHT22;33323;52.124;6.018;2023-06-26T02:03:20;21.70;99.90
47600;DHT22;33323;52.124;6.018;2023-06-26T02:05:47;21.80;99.90
47600;DHT22;33323;52.124;6.018;2023-06-26T02:08:15;21.80;99.90
47600;DHT22;33323;52.124;6.018;2023-06-26T02:10:47;21.80;99.90
47600;DHT22;33323;52.124;6.018;2023-06-26T02:13:16;21.80;99.90
47600;DHT22;33323;52.124;6.018;2023-06-26T02:15:43;21.80;99.90
47600;DHT22;33323;52.124;6.018;2023-06-26T02:18:10;21.90;99.90
47600;DHT22;33323;52.124;6.018;2023-06-26T02:20:37;21.90;99.90
47600;DHT22;33323;52.124;6.018;2023-06-26T02:23:04;22.00;99.90
47600;DHT22;33323;52.124;6.018;2023-06-26T02:25:31;21.90;99.90
47600;DHT22;33323;52.124;6.018;2023-06-26T02:27:58;21.90;99.90
47600;DHT22;33323;52.124;6.018;2023-06-26T02:30:25;21.90;99.90
47600;DHT22;33323;52.124;6.018;2023-06-26T02:32:52;21.90;99.90
47600;DHT22;33323;52.124;6.018;2023-06-26T02:35:20;21.90;99.90
47600;DHT22;33323;52.124;6.018;2023-06-26T02:37:47;21.90;99.90
47600;DHT22;33323;52.124;6.018;2023-06-26T02:40:14;21.80;99.90
47600;DHT22;33323;52.124;6.018;2023-06-26T02:42:41;21.80;99.90
47600;DHT22;33323;52.124;6.018;2023-06-26T02:45:09;21.80;99.90
47600;DHT22;33323;52.124;6.018;2023-06-26T02:47:36;21.60;99.90
47600;DHT22;33323;52.124;6.018;2023-06-26T02:50:08;21.50;99.90
47600;DHT22;33323;52.124;6.018;2023-06-26T02:52:55;21.50;99.90
47600;DHT22;33323;52.124;6.018;2023-06-26T02:55:22;21.50;99.90
47600;DHT22;33323;52.124;6.018;2023-06-26T02:57:51;21.40;99.90
47600;DHT22;33323;52.124;6.018;2023-06-26T03:00:19;21.30;99.90
47600;DHT22;33323;52.124;6.018;2023-06-26T03:02:49;21.40;99.90
47600;DHT22;33323;52.124;6.018;2023-06-26T03:05:18;21.30;99.90
47600;DHT22;33323;52.124;6.018;2023-06-26T03:07:46;21.30;99.90
47600;DHT22;33323;52.124;6.018;2023-06-26T03:10:14;21.30;99.90
47600;DHT22;33323;52.124;6.018;2023-06-26T03:12:43;21.20;99.90
47600;DHT22;33323;52.124;6.018;2023-06-26T03:15:10;21.20;99.90
47600;DHT22;33323;52.124;6.018;2023-06-26T03:17:38;21.20;99.90
47600;DHT22;33323;52.124;6.018;2023-06-26T03:20:10;21.10;99.90
47600;DHT22;33323;52.124;6.018;2023-06-26T03:22:50;21.30;99.90
47600;DHT22;33323;52.124;6.018;2023-06-26T03:25:19;21.10;99.90
47600;DHT22;33323;52.124;6.018;2023-06-26T03:27:47;21.10;99.90
47600;DHT22;33323;52.124;6.018;2023-06-26T03:30:16;21.10;99.90
47600;DHT22;33323;52.124;6.018;2023-06-26T03:32:46;21.10;99.90
47600;DHT22;33323;52.124;6.018;2023-06-26T03:35:14;21.10;99.90
47600;DHT22;33323;52.124;6.018;2023-06-26T03:37:41;21.10;99.90
47600;DHT22;33323;52.124;6.018;2023-06-26T03:40:09;21.00;99.90
47600;DHT22;33323;52.124;6.018;2023-06-26T03:42:37;21.00;99.90
47600;DHT22;33323;52.124;6.018;2023-06-26T03:45:05;20.90;99.90
47600;DHT22;33323;52.124;6.018;2023-06-26T03:47:34;21.00;99.90
47600;DHT22;33323;52.124;6.018;2023-06-26T03:50:02;20.90;99.90
47600;DHT22;33323;52.124;6.018;2023-06-26T03:52:29;20.90;99.90
47600;DHT22;33323;52.124;6.018;2023-06-26T03:54:58;20.80;99.90
47600;DHT22;33323;52.124;6.018;2023-06-26T03:57:25;20.70;99.90
47600;DHT22;33323;52.124;6.018;2023-06-26T03:59:52;20.70;99.90
47600;DHT22;33323;52.124;6.018;2023-06-26T04:02:21;20.80;99.90
47600;DHT22;33323;52.124;6.018;2023-06-26T04:04:50;20.70;99.90
47600;DHT22;33323;52.124;6.018;2023-06-26T04:07:17;20.70;99.90
47600;DHT22;33323;52.124;6.018;2023-06-26T04:09:45;20.70;99.90
47600;DHT22;33323;52.124;6.018;2023-06-26T04:12:12;20.70;99.90
47600;DHT22;33323;52.124;6.018;2023-06-26T04:14:39;20.70;99.90
47600;DHT22;33323;52.124;6.018;2023-06-26T04:17:06;20.70;99.90
47600;DHT22;33323;52.124;6.018;2023-06-26T04:19:33;20.80;99.90
47600;DHT22;33323;52.124;6.018;2023-06-26T04:22:03;20.80;99.90
47600;DHT22;33323;52.124;6.018;2023-06-26T04:24:30;20.80;99.90
47600;DHT22;33323;52.124;6.018;2023-06-26T04:26:57;20.80;99.90
47600;DHT22;33323;52.124;6.018;2023-06-26T04:29:27;20.90;99.90
47600;DHT22;33323;52.124;6.018;2023-06-26T04:31:54;21.00;99.90
47600;DHT22;33323;52.124;6.018;2023-06-26T04:34:26;21.00;99.90
47600;DHT22;33323;52.124;6.018;2023-06-26T04:36:54;21.10;99.90
47600;DHT22;33323;52.124;6.018;2023-06-26T04:39:21;21.10;99.90
47600;DHT22;33323;52.124;6.018;2023-06-26T04:41:48;21.20;99.90
47600;DHT22;33323;52.124;6.018;2023-06-26T04:44:15;21.30;99.90
47600;DHT22;33323;52.124;6.018;2023-06-26T04:46:42;21.40;99.90
47600;DHT22;33323;52.124;6.018;2023-06-26T04:49:10;21.70;99.90
47600;DHT22;33323;52.124;6.018;2023-06-26T04:51:37;21.80;99.90
47600;DHT22;33323;52.124;6.018;2023-06-26T04:54:07;21.70;99.90
47600;DHT22;33323;52.124;6.018;2023-06-26T04:56:35;21.50;99.90
47600;DHT22;33323;52.124;6.018;2023-06-26T04:59:03;21.40;99.90
47600;DHT22;33323;52.124;6.018;2023-06-26T05:01:30;21.10;99.90
47600;DHT22;33323;52.124;6.018;2023-06-26T05:03:59;21.20;99.90
47600;DHT22;33323;52.124;6.018;2023-06-26T05:06:26;21.20;99.90
47600;DHT22;33323;52.124;6.018;2023-06-26T05:08:53;21.00;99.90
47600;DHT22;33323;52.124;6.018;2023-06-26T05:11:20;21.10;99.90
47600;DHT22;33323;52.124;6.018;2023-06-26T05:13:47;21.00;99.90
47600;DHT22;33323;52.124;6.018;2023-06-26T05:16:14;21.00;99.90
47600;DHT22;33323;52.124;6.018;2023-06-26T05:18:41;21.30;99.90
47600;DHT22;33323;52.124;6.018;2023-06-26T05:21:08;21.50;99.90
47600;DHT22;33323;52.124;6.018;2023-06-26T05:23:36;22.00;99.90
47600;DHT22;33323;52.124;6.018;2023-06-26T05:26:03;22.40;99.90
47600;DHT22;33323;52.124;6.018;2023-06-26T05:28:31;22.60;99.90
47600;DHT22;33323;52.124;6.018;2023-06-26T05:30:59;23.00;99.90
47600;DHT22;33323;52.124;6.018;2023-06-26T05:33:26;23.40;99.90
47600;DHT22;33323;52.124;6.018;2023-06-26T05:35:54;23.70;99.90
47600;DHT22;33323;52.124;6.018;2023-06-26T05:38:22;23.80;99.90
47600;DHT22;33323;52.124;6.018;2023-06-26T05:40:49;23.90;99.90
47600;DHT22;33323;52.124;6.018;2023-06-26T05:43:17;23.80;99.90
47600;DHT22;33323;52.124;6.018;2023-06-26T05:45:53;23.90;99.90
47600;DHT22;33323;52.124;6.018;2023-06-26T05:48:20;23.80;99.90
47600;DHT22;33323;52.124;6.018;2023-06-26T05:50:47;23.90;99.90
47600;DHT22;33323;52.124;6.018;2023-06-26T05:53:15;24.10;99.90
47600;DHT22;33323;52.124;6.018;2023-06-26T05:55:42;24.10;99.90
47600;DHT22;33323;52.124;6.018;2023-06-26T05:58:10;24.50;99.90
47600;DHT22;33323;52.124;6.018;2023-06-26T06:00:41;24.70;99.90
47600;DHT22;33323;52.124;6.018;2023-06-26T06:03:10;24.80;99.90
47600;DHT22;33323;52.124;6.018;2023-06-26T06:05:38;25.30;99.90
47600;DHT22;33323;52.124;6.018;2023-06-26T06:08:05;25.50;99.90
47600;DHT22;33323;52.124;6.018;2023-06-26T06:10:32;25.60;99.90
47600;DHT22;33323;52.124;6.018;2023-06-26T06:13:00;25.20;99.90
47600;DHT22;33323;52.124;6.018;2023-06-26T06:15:27;25.40;99.90
47600;DHT22;33323;52.124;6.018;2023-06-26T06:17:57;25.20;99.90
47600;DHT22;33323;52.124;6.018;2023-06-26T06:20:25;25.20;99.90
47600;DHT22;33323;52.124;6.018;2023-06-26T06:22:52;24.80;99.90
47600;DHT22;33323;52.124;6.018;2023-06-26T06:25:20;25.00;99.90
47600;DHT22;33323;52.124;6.018;2023-06-26T06:27:47;25.10;99.90
47600;DHT22;33323;52.124;6.018;2023-06-26T06:30:15;25.10;99.90
47600;DHT22;33323;52.124;6.018;2023-06-26T06:32:42;25.00;99.90
47600;DHT22;33323;52.124;6.018;2023-06-26T06:35:10;25.30;99.90
47600;DHT22;33323;52.124;6.018;2023-06-26T06:37:38;25.40;99.90
47600;DHT22;33323;52.124;6.018;2023-06-26T06:40:06;25.20;99.90
47600;DHT22;33323;52.124;6.018;2023-06-26T06:42:33;25.70;99.90
47600;DHT22;33323;52.124;6.018;2023-06-26T06:45:03;26.20;99.90
47600;DHT22;33323;52.124;6.018;2023-06-26T06:47:32;26.60;99.90
47600;DHT22;33323;52.124;6.018;2023-06-26T06:50:00;26.80;99.90
47600;DHT22;33323;52.124;6.018;2023-06-26T06:52:39;27.10;99.90
47600;DHT22;33323;52.124;6.018;2023-06-26T06:55:08;27.00;99.90
47600;DHT22;33323;52.124;6.018;2023-06-26T06:57:37;26.50;99.90
47600;DHT22;33323;52.124;6.018;2023-06-26T07:00:08;26.70;99.90
47600;DHT22;33323;52.124;6.018;2023-06-26T07:02:38;26.30;99.90
47600;DHT22;33323;52.124;6.018;2023-06-26T07:05:07;26.30;99.90
47600;DHT22;33323;52.124;6.018;2023-06-26T07:07:35;26.30;99.90
47600;DHT22;33323;52.124;6.018;2023-06-26T07:10:06;26.20;99.90
47600;DHT22;33323;52.124;6.018;2023-06-26T07:12:36;26.00;99.90
47600;DHT22;33323;52.124;6.018;2023-06-26T07:15:05;26.40;99.90
47600;DHT22;33323;52.124;6.018;2023-06-26T07:17:34;27.00;99.90
47600;DHT22;33323;52.124;6.018;2023-06-26T07:20:02;27.50;99.90
47600;DHT22;33323;52.124;6.018;2023-06-26T07:22:34;28.00;99.90
47600;DHT22;33323;52.124;6.018;2023-06-26T07:25:02;27.60;99.90
47600;DHT22;33323;52.124;6.018;2023-06-26T07:27:31;27.00;99.90
47600;DHT22;33323;52.124;6.018;2023-06-26T07:30:00;27.00;99.90
47600;DHT22;33323;52.124;6.018;2023-06-26T07:32:28;27.20;99.90
47600;DHT22;33323;52.124;6.018;2023-06-26T07:34:56;26.60;99.90
47600;DHT22;33323;52.124;6.018;2023-06-26T07:37:23;26.70;99.90
47600;DHT22;33323;52.124;6.018;2023-06-26T07:39:51;26.70;99.90
47600;DHT22;33323;52.124;6.018;2023-06-26T07:42:18;26.50;99.90
47600;DHT22;33323;52.124;6.018;2023-06-26T07:44:45;26.10;99.90
47600;DHT22;33323;52.124;6.018;2023-06-26T07:47:13;26.20;99.90
47600;DHT22;33323;52.124;6.018;2023-06-26T07:49:41;26.40;99.90
47600;DHT22;33323;52.124;6.018;2023-06-26T07:52:09;26.70;99.90
47600;DHT22;33323;52.124;6.018;2023-06-26T07:54:40;26.90;99.90
47600;DHT22;33323;52.124;6.018;2023-06-26T07:57:08;26.80;99.90
47600;DHT22;33323;52.124;6.018;2023-06-26T07:59:38;26.70;99.90
47600;DHT22;33323;52.124;6.018;2023-06-26T08:02:06;26.10;99.90
47600;DHT22;33323;52.124;6.018;2023-06-26T08:04:34;26.10;99.90
47600;DHT22;33323;52.124;6.018;2023-06-26T08:07:02;25.90;99.90
47600;DHT22;33323;52.124;6.018;2023-06-26T08:09:31;25.60;99.90
47600;DHT22;33323;52.124;6.018;2023-06-26T08:11:59;25.40;99.90
47600;DHT22;33323;52.124;6.018;2023-06-26T08:14:27;25.90;99.90
47600;DHT22;33323;52.124;6.018;2023-06-26T08:16:55;25.90;99.90
47600;DHT22;33323;52.124;6.018;2023-06-26T08:19:22;26.30;99.90
47600;DHT22;33323;52.124;6.018;2023-06-26T08:21:50;26.10;99.90
47600;DHT22;33323;52.124;6.018;2023-06-26T08:24:18;25.70;99.90
47600;DHT22;33323;52.124;6.018;2023-06-26T08:26:47;24.90;99.90
47600;DHT22;33323;52.124;6.018;2023-06-26T08:29:15;25.20;99.90
47600;DHT22;33323;52.124;6.018;2023-06-26T08:31:43;26.10;99.90
47600;DHT22;33323;52.124;6.018;2023-06-26T08:34:10;25.90;99.90
47600;DHT22;33323;52.124;6.018;2023-06-26T08:36:37;26.00;99.90
47600;DHT22;33323;52.124;6.018;2023-06-26T08:39:05;26.50;99.90
47600;DHT22;33323;52.124;6.018;2023-06-26T08:41:32;26.60;99.90
47600;DHT22;33323;52.124;6.018;2023-06-26T08:44:00;26.50;99.90
47600;DHT22;33323;52.124;6.018;2023-06-26T08:46:28;26.80;99.90
47600;DHT22;33323;52.124;6.018;2023-06-26T08:49:01;27.10;99.90
47600;DHT22;33323;52.124;6.018;2023-06-26T08:51:39;27.10;99.90
47600;DHT22;33323;52.124;6.018;2023-06-26T08:54:11;27.50;99.90
47600;DHT22;33323;52.124;6.018;2023-06-26T08:56:44;27.80;99.90
47600;DHT22;33323;52.124;6.018;2023-06-26T08:59:14;28.20;99.90
47600;DHT22;33323;52.124;6.018;2023-06-26T09:01:41;27.80;99.90
47600;DHT22;33323;52.124;6.018;2023-06-26T09:04:09;27.70;99.90
47600;DHT22;33323;52.124;6.018;2023-06-26T09:06:36;27.70;99.90
47600;DHT22;33323;52.124;6.018;2023-06-26T09:09:03;27.10;99.90
47600;DHT22;33323;52.124;6.018;2023-06-26T09:11:30;27.50;99.90
47600;DHT22;33323;52.124;6.018;2023-06-26T09:13:58;27.60;99.90
47600;DHT22;33323;52.124;6.018;2023-06-26T09:16:26;27.50;99.90
47600;DHT22;33323;52.124;6.018;2023-06-26T09:18:55;27.00;99.90
47600;DHT22;33323;52.124;6.018;2023-06-26T09:21:23;26.90;99.90
47600;DHT22;33323;52.124;6.018;2023-06-26T09:23:52;27.10;99.90
47600;DHT22;33323;52.124;6.018;2023-06-26T09:26:21;27.70;99.90
47600;DHT22;33323;52.124;6.018;2023-06-26T09:28:49;28.20;99.90
47600;DHT22;33323;52.124;6.018;2023-06-26T09:31:17;28.60;99.90
47600;DHT22;33323;52.124;6.018;2023-06-26T09:34:04;28.90;99.90
47600;DHT22;33323;52.124;6.018;2023-06-26T09:36:33;28.70;99.90
47600;DHT22;33323;52.124;6.018;2023-06-26T09:39:07;28.70;99.90
47600;DHT22;33323;52.124;6.018;2023-06-26T09:41:43;28.20;99.90
47600;DHT22;33323;52.124;6.018;2023-06-26T09:44:13;28.30;99.90
47600;DHT22;33323;52.124;6.018;2023-06-26T09:46:41;28.40;99.90
47600;DHT22;33323;52.124;6.018;2023-06-26T09:49:10;28.30;99.90
47600;DHT22;33323;52.124;6.018;2023-06-26T09:51:40;28.00;99.90
47600;DHT22;33323;52.124;6.018;2023-06-26T09:54:08;27.90;99.90
47600;DHT22;33323;52.124;6.018;2023-06-26T09:56:36;27.50;99.90
47600;DHT22;33323;52.124;6.018;2023-06-26T09:59:05;26.50;99.90
47600;DHT22;33323;52.124;6.018;2023-06-26T10:01:33;26.30;99.90
47600;DHT22;33323;52.124;6.018;2023-06-26T10:04:01;25.90;99.90
47600;DHT22;33323;52.124;6.018;2023-06-26T10:06:36;26.60;99.90
47600;DHT22;33323;52.124;6.018;2023-06-26T10:09:06;27.30;99.90
47600;DHT22;33323;52.124;6.018;2023-06-26T10:11:51;27.40;99.90
47600;DHT22;33323;52.124;6.018;2023-06-26T10:14:26;27.20;99.90
47600;DHT22;33323;52.124;6.018;2023-06-26T10:16:58;26.90;99.90
47600;DHT22;33323;52.124;6.018;2023-06-26T10:19:27;27.10;99.90
47600;DHT22;33323;52.124;6.018;2023-06-26T10:21:56;27.60;99.90
47600;DHT22;33323;52.124;6.018;2023-06-26T10:24:25;27.50;99.90
47600;DHT22;33323;52.124;6.018;2023-06-26T10:27:33;27.20;99.90
47600;DHT22;33323;52.124;6.018;2023-06-26T10:29:55;27.20;99.90
47600;DHT22;33323;52.124;6.018;2023-06-26T10:32:25;27.10;99.90
47600;DHT22;33323;52.124;6.018;2023-06-26T10:34:53;27.30;99.90
47600;DHT22;33323;52.124;6.018;2023-06-26T10:37:41;27.50;99.90
47600;DHT22;33323;52.124;6.018;2023-06-26T10:40:13;27.60;99.90
47600;DHT22;33323;52.124;6.018;2023-06-26T10:42:42;28.30;99.90
47600;DHT22;33323;52.124;6.018;2023-06-26T10:45:18;28.30;99.90
47600;DHT22;33323;52.124;6.018;2023-06-26T10:47:48;28.20;99.90
47600;DHT22;33323;52.124;6.018;2023-06-26T10:50:17;28.20;99.90
47600;DHT22;33323;52.124;6.018;2023-06-26T10:55:55;28.10;99.90
47600;DHT22;33323;52.124;6.018;2023-06-26T11:01:21;27.80;99.90
47600;DHT22;33323;52.124;6.018;2023-06-26T11:06:32;27.50;99.90
47600;DHT22;33323;52.124;6.018;2023-06-26T11:09:17;27.60;99.90
47600;DHT22;33323;52.124;6.018;2023-06-26T11:14:21;27.60;99.90
47600;DHT22;33323;52.124;6.018;2023-06-26T11:16:49;26.70;99.90
47600;DHT22;33323;52.124;6.018;2023-06-26T11:19:18;26.10;99.90
47600;DHT22;33323;52.124;6.018;2023-06-26T11:21:47;26.40;99.90
47600;DHT22;33323;52.124;6.018;2023-06-26T11:24:15;26.40;99.90
47600;DHT22;33323;52.124;6.018;2023-06-26T11:26:44;26.90;99.90
47600;DHT22;33323;52.124;6.018;2023-06-26T11:29:12;26.60;99.90
47600;DHT22;33323;52.124;6.018;2023-06-26T11:31:41;26.60;99.90
47600;DHT22;33323;52.124;6.018;2023-06-26T11:34:13;26.80;99.90
47600;DHT22;33323;52.124;6.018;2023-06-26T11:36:43;26.50;99.90
47600;DHT22;33323;52.124;6.018;2023-06-26T11:39:13;26.30;99.90
47600;DHT22;33323;52.124;6.018;2023-06-26T11:41:41;25.90;99.90
47600;DHT22;33323;52.124;6.018;2023-06-26T11:44:10;25.60;99.90
47600;DHT22;33323;52.124;6.018;2023-06-26T11:46:38;25.90;99.90
47600;DHT22;33323;52.124;6.018;2023-06-26T11:49:06;26.40;99.90
47600;DHT22;33323;52.124;6.018;2023-06-26T11:51:35;26.40;99.90
47600;DHT22;33323;52.124;6.018;2023-06-26T11:54:04;26.10;99.90
47600;DHT22;33323;52.124;6.018;2023-06-26T11:56:32;26.20;99.90
47600;DHT22;33323;52.124;6.018;2023-06-26T11:59:09;26.80;99.90
47600;DHT22;33323;52.124;6.018;2023-06-26T12:01:40;26.80;99.90
47600;DHT22;33323;52.124;6.018;2023-06-26T12:04:11;27.40;99.90
47600;DHT22;33323;52.124;6.018;2023-06-26T12:06:42;28.10;99.90
47600;DHT22;33323;52.124;6.018;2023-06-26T12:09:13;27.90;99.90
47600;DHT22;33323;52.124;6.018;2023-06-26T12:11:43;27.60;99.90
47600;DHT22;33323;52.124;6.018;2023-06-26T12:14:11;27.50;99.90
47600;DHT22;33323;52.124;6.018;2023-06-26T12:16:42;27.40;99.90
47600;DHT22;33323;52.124;6.018;2023-06-26T12:19:10;27.70;99.90
47600;DHT22;33323;52.124;6.018;2023-06-26T12:24:06;27.30;99.90
47600;DHT22;33323;52.124;6.018;2023-06-26T12:26:36;27.30;99.90
47600;DHT22;33323;52.124;6.018;2023-06-26T12:29:05;26.90;99.90
47600;DHT22;33323;52.124;6.018;2023-06-26T12:31:34;26.60;99.90
47600;DHT22;33323;52.124;6.018;2023-06-26T12:34:10;26.40;99.90
47600;DHT22;33323;52.124;6.018;2023-06-26T12:36:49;26.60;99.90
47600;DHT22;33323;52.124;6.018;2023-06-26T12:39:21;26.90;99.90
47600;DHT22;33323;52.124;6.018;2023-06-26T12:41:52;26.50;99.90
47600;DHT22;33323;52.124;6.018;2023-06-26T12:44:28;26.10;99.90
47600;DHT22;33323;52.124;6.018;2023-06-26T12:47:01;26.50;99.90
47600;DHT22;33323;52.124;6.018;2023-06-26T12:52:06;27.30;99.90
47600;DHT22;33323;52.124;6.018;2023-06-26T12:54:37;27.60;99.90
47600;DHT22;33323;52.124;6.018;2023-06-26T12:57:06;27.60;99.90
47600;DHT22;33323;52.124;6.018;2023-06-26T12:59:36;26.80;99.90
47600;DHT22;33323;52.124;6.018;2023-06-26T13:02:05;26.40;99.90
47600;DHT22;33323;52.124;6.018;2023-06-26T13:04:33;25.90;99.90
47600;DHT22;33323;52.124;6.018;2023-06-26T13:07:01;26.10;99.90
47600;DHT22;33323;52.124;6.018;2023-06-26T13:09:33;25.70;99.90
47600;DHT22;33323;52.124;6.018;2023-06-26T13:12:03;25.70;99.90
47600;DHT22;33323;52.124;6.018;2023-06-26T13:14:32;25.70;99.90
47600;DHT22;33323;52.124;6.018;2023-06-26T13:17:03;25.40;99.90
47600;DHT22;33323;52.124;6.018;2023-06-26T13:19:35;25.60;99.90
47600;DHT22;33323;52.124;6.018;2023-06-26T13:22:03;25.10;99.90
47600;DHT22;33323;52.124;6.018;2023-06-26T13:24:31;24.70;99.90
47600;DHT22;33323;52.124;6.018;2023-06-26T13:26:58;24.70;99.90
47600;DHT22;33323;52.124;6.018;2023-06-26T13:29:26;25.40;99.90
47600;DHT22;33323;52.124;6.018;2023-06-26T13:31:53;25.60;99.90
47600;DHT22;33323;52.124;6.018;2023-06-26T13:34:24;25.80;99.90
47600;DHT22;33323;52.124;6.018;2023-06-26T13:36:55;25.30;99.90
47600;DHT22;33323;52.124;6.018;2023-06-26T13:39:23;24.60;99.90
47600;DHT22;33323;52.124;6.018;2023-06-26T13:41:50;24.40;99.90
47600;DHT22;33323;52.124;6.018;2023-06-26T13:44:18;24.40;99.90
47600;DHT22;33323;52.124;6.018;2023-06-26T13:47:02;24.10;99.90
47600;DHT22;33323;52.124;6.018;2023-06-26T13:49:30;23.90;99.90
47600;DHT22;33323;52.124;6.018;2023-06-26T13:51:57;24.00;99.90
47600;DHT22;33323;52.124;6.018;2023-06-26T13:54:24;24.50;99.90
47600;DHT22;33323;52.124;6.018;2023-06-26T13:56:52;24.90;99.90
47600;DHT22;33323;52.124;6.018;2023-06-26T13:59:24;25.40;99.90
47600;DHT22;33323;52.124;6.018;2023-06-26T14:01:54;25.50;99.90
47600;DHT22;33323;52.124;6.018;2023-06-26T14:04:22;25.70;99.90
47600;DHT22;33323;52.124;6.018;2023-06-26T14:06:49;25.90;99.90
47600;DHT22;33323;52.124;6.018;2023-06-26T14:09:17;25.90;99.90
47600;DHT22;33323;52.124;6.018;2023-06-26T14:11:44;25.90;99.90
47600;DHT22;33323;52.124;6.018;2023-06-26T14:14:12;25.90;99.90
47600;DHT22;33323;52.124;6.018;2023-06-26T14:16:39;25.80;99.90
47600;DHT22;33323;52.124;6.018;2023-06-26T14:19:10;25.80;99.90
47600;DHT22;33323;52.124;6.018;2023-06-26T14:21:42;25.80;99.90
47600;DHT22;33323;52.124;6.018;2023-06-26T14:24:09;25.40;99.90
47600;DHT22;33323;52.124;6.018;2023-06-26T14:26:37;24.70;99.90
47600;DHT22;33323;52.124;6.018;2023-06-26T14:29:05;24.80;99.90
47600;DHT22;33323;52.124;6.018;2023-06-26T14:31:33;25.10;99.90
47600;DHT22;33323;52.124;6.018;2023-06-26T14:34:00;25.00;99.90
47600;DHT22;33323;52.124;6.018;2023-06-26T14:36:30;24.90;99.90
47600;DHT22;33323;52.124;6.018;2023-06-26T14:39:01;24.80;99.90
47600;DHT22;33323;52.124;6.018;2023-06-26T14:41:30;25.00;99.90
47600;DHT22;33323;52.124;6.018;2023-06-26T14:43:58;25.30;99.90
47600;DHT22;33323;52.124;6.018;2023-06-26T14:46:26;25.10;99.90
47600;DHT22;33323;52.124;6.018;2023-06-26T14:48:54;24.90;99.90
47600;DHT22;33323;52.124;6.018;2023-06-26T14:51:22;25.30;99.90
47600;DHT22;33323;52.124;6.018;2023-06-26T14:53:50;25.10;99.90
47600;DHT22;33323;52.124;6.018;2023-06-26T14:56:17;25.50;99.90
47600;DHT22;33323;52.124;6.018;2023-06-26T14:58:44;25.40;99.90
47600;DHT22;33323;52.124;6.018;2023-06-26T15:01:14;25.40;99.90
47600;DHT22;33323;52.124;6.018;2023-06-26T15:03:47;25.00;99.90
47600;DHT22;33323;52.124;6.018;2023-06-26T15:06:15;24.50;99.90
47600;DHT22;33323;52.124;6.018;2023-06-26T15:08:42;24.40;99.90
47600;DHT22;33323;52.124;6.018;2023-06-26T15:11:10;24.40;99.90
47600;DHT22;33323;52.124;6.018;2023-06-26T15:13:37;24.10;99.90
47600;DHT22;33323;52.124;6.018;2023-06-26T15:16:05;23.80;99.90
47600;DHT22;33323;52.124;6.018;2023-06-26T15:18:32;23.50;99.90
47600;DHT22;33323;52.124;6.018;2023-06-26T15:20:59;23.10;99.90
47600;DHT22;33323;52.124;6.018;2023-06-26T15:23:30;23.10;99.90
47600;DHT22;33323;52.124;6.018;2023-06-26T15:25:57;22.90;99.90
47600;DHT22;33323;52.124;6.018;2023-06-26T15:28:24;23.30;99.90
47600;DHT22;33323;52.124;6.018;2023-06-26T15:30:51;23.20;99.90
47600;DHT22;33323;52.124;6.018;2023-06-26T15:33:18;23.30;99.90
47600;DHT22;33323;52.124;6.018;2023-06-26T15:35:46;23.30;99.90
47600;DHT22;33323;52.124;6.018;2023-06-26T15:38:13;23.50;99.90
47600;DHT22;33323;52.124;6.018;2023-06-26T15:40:40;23.80;99.90
47600;DHT22;33323;52.124;6.018;2023-06-26T15:43:08;23.90;99.90
47600;DHT22;33323;52.124;6.018;2023-06-26T15:45:35;23.40;99.90
47600;DHT22;33323;52.124;6.018;2023-06-26T15:48:03;23.20;99.90
47600;DHT22;33323;52.124;6.018;2023-06-26T15:50:30;23.00;99.90
47600;DHT22;33323;52.124;6.018;2023-06-26T15:52:57;23.00;99.90
47600;DHT22;33323;52.124;6.018;2023-06-26T15:55:25;22.90;99.90
47600;DHT22;33323;52.124;6.018;2023-06-26T15:57:53;22.80;99.90